KBLU

Blue Canyon - Nyack Airport

Emigrant Gap, California, USA
METAR KBLU 161752Z AUTO 15011G22KT 9SM UP OVC005 03/02 A2999 RMK AO2 PK WND 15027/1655 UPE1658B22E28B45RAB28E45 SLP154 P0001 60086 T00280017 10028 20017 53009
Observed Flight Rules
Jan-16 @ 17:52 UTC (31 minutes ago) Instrument Flight Rules
Wind Visibility Clouds Conditions
150° at 11 knots
 Gusting to 22 knots
9 miles
  • Overcast at 500' AGL
  • Unknown precipitation
Temperatures Readings Precipitation
Current 3°C / 37°F
Dewpoint 2°C / 36°F
Humidity 93%
Altimeter 29.99" Hg
Pressure 1015.4 hPa
Elevation 1609
Current Rain 0.01
METAR KBLU 161752Z AUTO 15011G22KT 9SM UP OVC005 03/02 A2999 RMK AO2 PK WND 15027/1655 UPE1658B22E28B45RAB28E45 SLP154 P0001 60086 T00280017 10028 20017 53009
Observed Flight Rules
Jan-16 @ 17:52 UTC
(31 minutes ago)
IFR
Wind Visibility
150° at 11 knots
 Gusting to 22 knots
9 miles
Clouds
  • Overcast at 500' AGL
Conditions
  • Unknown precipitation
Temperature Dewpoint
3°C / 37°F 2°C / 36°F
Humidity Altimeter Pressure
93% 29.99" Hg 1015.4 hPa
Current Rain
0.01